sensor_id;sensor_type;location;lat;lon;timestamp;pressure;altitude;pressure_sealevel;temperature;humidity
56992;BME280;42885;49.754;18.636;2023-03-04T00:00:23;98463.09;;;3.03;100.00
56992;BME280;42885;49.754;18.636;2023-03-04T00:03:13;98459.73;;;2.99;100.00
56992;BME280;42885;49.754;18.636;2023-03-04T00:06:02;98460.94;;;3.02;100.00
56992;BME280;42885;49.754;18.636;2023-03-04T00:08:52;98457.48;;;3.03;100.00
56992;BME280;42885;49.754;18.636;2023-03-04T00:11:41;98451.73;;;3.09;100.00
56992;BME280;42885;49.754;18.636;2023-03-04T00:14:31;98450.38;;;2.79;100.00
56992;BME280;42885;49.754;18.636;2023-03-04T00:17:20;98441.08;;;2.71;100.00
56992;BME280;42885;49.754;18.636;2023-03-04T00:20:10;98444.70;;;2.64;100.00
56992;BME280;42885;49.754;18.636;2023-03-04T00:22:59;98438.41;;;2.22;100.00
56992;BME280;42885;49.754;18.636;2023-03-04T00:25:49;98435.77;;;2.23;100.00
56992;BME280;42885;49.754;18.636;2023-03-04T00:28:39;98444.20;;;2.13;100.00
56992;BME280;42885;49.754;18.636;2023-03-04T00:31:28;98447.32;;;2.08;100.00
56992;BME280;42885;49.754;18.636;2023-03-04T00:34:18;98432.58;;;1.93;100.00
56992;BME280;42885;49.754;18.636;2023-03-04T00:37:06;98430.34;;;1.78;100.00
56992;BME280;42885;49.754;18.636;2023-03-04T00:39:56;98431.63;;;1.78;100.00
56992;BME280;42885;49.754;18.636;2023-03-04T00:42:45;98428.52;;;1.83;100.00
56992;BME280;42885;49.754;18.636;2023-03-04T00:45:35;98416.63;;;1.76;100.00
56992;BME280;42885;49.754;18.636;2023-03-04T00:48:24;98410.77;;;1.69;100.00
56992;BME280;42885;49.754;18.636;2023-03-04T00:51:13;98406.52;;;1.67;100.00
56992;BME280;42885;49.754;18.636;2023-03-04T00:54:02;98403.30;;;1.76;100.00
56992;BME280;42885;49.754;18.636;2023-03-04T00:56:51;98404.48;;;1.81;100.00
56992;BME280;42885;49.754;18.636;2023-03-04T00:59:41;98403.17;;;1.83;100.00
56992;BME280;42885;49.754;18.636;2023-03-04T01:02:30;98401.23;;;1.73;100.00
56992;BME280;42885;49.754;18.636;2023-03-04T01:05:20;98400.58;;;2.01;100.00
56992;BME280;42885;49.754;18.636;2023-03-04T01:08:09;98388.08;;;2.02;100.00
56992;BME280;42885;49.754;18.636;2023-03-04T01:10:57;98375.13;;;2.05;100.00
56992;BME280;42885;49.754;18.636;2023-03-04T01:13:47;98383.67;;;2.07;100.00
56992;BME280;42885;49.754;18.636;2023-03-04T01:16:36;98374.77;;;2.01;100.00
56992;BME280;42885;49.754;18.636;2023-03-04T01:19:26;98370.98;;;1.98;100.00
56992;BME280;42885;49.754;18.636;2023-03-04T01:22:16;98372.20;;;1.63;100.00
56992;BME280;42885;49.754;18.636;2023-03-04T01:25:07;98368.91;;;1.56;100.00
56992;BME280;42885;49.754;18.636;2023-03-04T01:27:57;98354.09;;;1.66;100.00
56992;BME280;42885;49.754;18.636;2023-03-04T01:30:46;98353.22;;;1.65;100.00
56992;BME280;42885;49.754;18.636;2023-03-04T01:33:37;98345.24;;;1.76;100.00
56992;BME280;42885;49.754;18.636;2023-03-04T01:36:26;98343.24;;;1.88;100.00
56992;BME280;42885;49.754;18.636;2023-03-04T01:39:15;98335.50;;;1.88;100.00
56992;BME280;42885;49.754;18.636;2023-03-04T01:42:04;98329.89;;;1.70;100.00
56992;BME280;42885;49.754;18.636;2023-03-04T01:44:55;98337.01;;;1.41;100.00
56992;BME280;42885;49.754;18.636;2023-03-04T01:47:46;98326.72;;;1.39;100.00
56992;BME280;42885;49.754;18.636;2023-03-04T01:50:36;98323.84;;;1.33;100.00
56992;BME280;42885;49.754;18.636;2023-03-04T01:53:27;98321.34;;;1.30;100.00
56992;BME280;42885;49.754;18.636;2023-03-04T01:56:27;98322.30;;;1.46;100.00
56992;BME280;42885;49.754;18.636;2023-03-04T01:59:21;98307.78;;;1.40;100.00
56992;BME280;42885;49.754;18.636;2023-03-04T02:02:12;98301.33;;;1.60;100.00
56992;BME280;42885;49.754;18.636;2023-03-04T02:05:02;98299.19;;;1.41;100.00
56992;BME280;42885;49.754;18.636;2023-03-04T02:07:52;98298.91;;;1.52;100.00
56992;BME280;42885;49.754;18.636;2023-03-04T02:10:43;98289.78;;;1.39;100.00
56992;BME280;42885;49.754;18.636;2023-03-04T02:13:33;98290.61;;;1.39;100.00
56992;BME280;42885;49.754;18.636;2023-03-04T02:16:22;98275.16;;;1.57;100.00
56992;BME280;42885;49.754;18.636;2023-03-04T02:22:18;98270.84;;;1.40;100.00
56992;BME280;42885;49.754;18.636;2023-03-04T02:25:12;98266.87;;;1.44;100.00
56992;BME280;42885;49.754;18.636;2023-03-04T02:28:01;98264.18;;;1.49;100.00
56992;BME280;42885;49.754;18.636;2023-03-04T02:30:51;98258.02;;;1.73;100.00
56992;BME280;42885;49.754;18.636;2023-03-04T02:33:41;98245.67;;;1.68;100.00
56992;BME280;42885;49.754;18.636;2023-03-04T02:36:31;98239.59;;;1.70;100.00
56992;BME280;42885;49.754;18.636;2023-03-04T02:39:32;98236.77;;;1.79;100.00
56992;BME280;42885;49.754;18.636;2023-03-04T02:42:22;98230.13;;;1.71;100.00
56992;BME280;42885;49.754;18.636;2023-03-04T02:45:35;98226.58;;;1.57;100.00
56992;BME280;42885;49.754;18.636;2023-03-04T02:48:21;98217.23;;;1.71;100.00
56992;BME280;42885;49.754;18.636;2023-03-04T02:51:11;98209.16;;;1.48;100.00
56992;BME280;42885;49.754;18.636;2023-03-04T02:54:00;98204.97;;;1.62;100.00
56992;BME280;42885;49.754;18.636;2023-03-04T02:56:52;98199.55;;;1.55;100.00
56992;BME280;42885;49.754;18.636;2023-03-04T02:59:42;98194.14;;;1.48;100.00
56992;BME280;42885;49.754;18.636;2023-03-04T03:02:32;98191.39;;;1.37;100.00
56992;BME280;42885;49.754;18.636;2023-03-04T03:05:23;98192.33;;;1.33;100.00
56992;BME280;42885;49.754;18.636;2023-03-04T03:08:15;98188.69;;;1.24;100.00
56992;BME280;42885;49.754;18.636;2023-03-04T03:11:05;98179.78;;;1.37;100.00
56992;BME280;42885;49.754;18.636;2023-03-04T03:13:56;98181.84;;;1.23;100.00
56992;BME280;42885;49.754;18.636;2023-03-04T03:16:45;98185.80;;;1.36;100.00
56992;BME280;42885;49.754;18.636;2023-03-04T03:19:34;98189.38;;;1.49;100.00
56992;BME280;42885;49.754;18.636;2023-03-04T03:22:24;98184.98;;;1.71;100.00
56992;BME280;42885;49.754;18.636;2023-03-04T03:25:15;98178.03;;;1.56;100.00
56992;BME280;42885;49.754;18.636;2023-03-04T03:28:06;98181.84;;;1.23;100.00
56992;BME280;42885;49.754;18.636;2023-03-04T03:30:56;98170.84;;;1.16;100.00
56992;BME280;42885;49.754;18.636;2023-03-04T03:33:46;98167.11;;;1.10;100.00
56992;BME280;42885;49.754;18.636;2023-03-04T03:36:35;98154.42;;;1.19;100.00
56992;BME280;42885;49.754;18.636;2023-03-04T03:39:24;98150.84;;;1.08;100.00
56992;BME280;42885;49.754;18.636;2023-03-04T03:42:13;98152.11;;;1.26;100.00
56992;BME280;42885;49.754;18.636;2023-03-04T03:45:02;98154.65;;;1.09;100.00
56992;BME280;42885;49.754;18.636;2023-03-04T03:47:51;98158.66;;;1.03;100.00
56992;BME280;42885;49.754;18.636;2023-03-04T03:50:41;98152.95;;;1.08;100.00
56992;BME280;42885;49.754;18.636;2023-03-04T03:53:30;98142.51;;;1.15;100.00
56992;BME280;42885;49.754;18.636;2023-03-04T03:56:18;98149.90;;;1.29;100.00
56992;BME280;42885;49.754;18.636;2023-03-04T03:59:08;98143.66;;;1.21;100.00
56992;BME280;42885;49.754;18.636;2023-03-04T04:01:58;98145.61;;;1.29;100.00
56992;BME280;42885;49.754;18.636;2023-03-04T04:04:46;98141.48;;;1.22;100.00
56992;BME280;42885;49.754;18.636;2023-03-04T04:07:36;98141.51;;;1.20;100.00
56992;BME280;42885;49.754;18.636;2023-03-04T04:10:26;98149.38;;;1.14;100.00
56992;BME280;42885;49.754;18.636;2023-03-04T04:13:15;98154.25;;;1.08;100.00
56992;BME280;42885;49.754;18.636;2023-03-04T04:16:05;98151.49;;;0.98;100.00
56992;BME280;42885;49.754;18.636;2023-03-04T04:18:55;98157.95;;;1.16;100.00
56992;BME280;42885;49.754;18.636;2023-03-04T04:21:44;98151.49;;;0.98;100.00
56992;BME280;42885;49.754;18.636;2023-03-04T04:24:35;98145.02;;;1.00;100.00
56992;BME280;42885;49.754;18.636;2023-03-04T04:27:24;98142.91;;;0.79;100.00
56992;BME280;42885;49.754;18.636;2023-03-04T04:30:13;98144.30;;;0.75;100.00
56992;BME280;42885;49.754;18.636;2023-03-04T04:33:03;98140.77;;;0.59;100.00
56992;BME280;42885;49.754;18.636;2023-03-04T04:35:53;98144.11;;;0.82;100.00
56992;BME280;42885;49.754;18.636;2023-03-04T04:38:42;98153.88;;;0.88;100.00
56992;BME280;42885;49.754;18.636;2023-03-04T04:41:39;98147.01;;;0.87;100.00
56992;BME280;42885;49.754;18.636;2023-03-04T04:44:28;98143.38;;;0.95;100.00
56992;BME280;42885;49.754;18.636;2023-03-04T04:47:17;98152.83;;;0.77;100.00
56992;BME280;42885;49.754;18.636;2023-03-04T04:50:07;98165.36;;;0.73;100.00
56992;BME280;42885;49.754;18.636;2023-03-04T04:52:56;98171.00;;;0.71;100.00
56992;BME280;42885;49.754;18.636;2023-03-04T04:55:45;98170.84;;;0.57;100.00
56992;BME280;42885;49.754;18.636;2023-03-04T04:58:35;98174.36;;;0.54;100.00
56992;BME280;42885;49.754;18.636;2023-03-04T05:01:25;98168.37;;;0.52;100.00
56992;BME280;42885;49.754;18.636;2023-03-04T05:04:14;98172.42;;;0.43;100.00
56992;BME280;42885;49.754;18.636;2023-03-04T05:07:03;98179.81;;;0.60;100.00
56992;BME280;42885;49.754;18.636;2023-03-04T05:09:53;98182.69;;;0.66;100.00
56992;BME280;42885;49.754;18.636;2023-03-04T05:12:43;98182.52;;;0.93;100.00
56992;BME280;42885;49.754;18.636;2023-03-04T05:15:32;98180.94;;;0.88;100.00
56992;BME280;42885;49.754;18.636;2023-03-04T05:18:22;98186.73;;;0.78;100.00
56992;BME280;42885;49.754;18.636;2023-03-04T05:21:11;98192.45;;;0.91;100.00
56992;BME280;42885;49.754;18.636;2023-03-04T05:24:01;98194.92;;;0.95;100.00
56992;BME280;42885;49.754;18.636;2023-03-04T05:26:51;98193.06;;;0.82;100.00
56992;BME280;42885;49.754;18.636;2023-03-04T05:29:40;98204.73;;;0.79;100.00
56992;BME280;42885;49.754;18.636;2023-03-04T05:32:31;98204.23;;;0.83;100.00
56992;BME280;42885;49.754;18.636;2023-03-04T05:35:20;98207.21;;;0.84;100.00
56992;BME280;42885;49.754;18.636;2023-03-04T05:38:11;98201.66;;;0.83;100.00
56992;BME280;42885;49.754;18.636;2023-03-04T05:41:03;98210.50;;;0.71;100.00
56992;BME280;42885;49.754;18.636;2023-03-04T05:43:53;98207.84;;;0.74;100.00
56992;BME280;42885;49.754;18.636;2023-03-04T05:46:43;98204.32;;;0.98;100.00
56992;BME280;42885;49.754;18.636;2023-03-04T05:49:33;98214.55;;;1.01;100.00
56992;BME280;42885;49.754;18.636;2023-03-04T05:52:22;98208.16;;;1.00;100.00
56992;BME280;42885;49.754;18.636;2023-03-04T05:55:11;98207.63;;;1.03;100.00
56992;BME280;42885;49.754;18.636;2023-03-04T05:58:01;98213.02;;;1.12;100.00
56992;BME280;42885;49.754;18.636;2023-03-04T06:00:50;98215.58;;;1.14;100.00
56992;BME280;42885;49.754;18.636;2023-03-04T06:03:40;98217.91;;;1.25;100.00
56992;BME280;42885;49.754;18.636;2023-03-04T06:06:30;98216.91;;;1.10;100.00
56992;BME280;42885;49.754;18.636;2023-03-04T06:09:20;98220.94;;;1.22;100.00
56992;BME280;42885;49.754;18.636;2023-03-04T06:12:11;98225.80;;;1.17;100.00
56992;BME280;42885;49.754;18.636;2023-03-04T06:15:00;98228.80;;;0.98;100.00
56992;BME280;42885;49.754;18.636;2023-03-04T06:17:50;98230.70;;;0.90;100.00
56992;BME280;42885;49.754;18.636;2023-03-04T06:20:39;98235.02;;;1.09;100.00
56992;BME280;42885;49.754;18.636;2023-03-04T06:23:29;98237.02;;;1.14;100.00
56992;BME280;42885;49.754;18.636;2023-03-04T06:26:19;98234.74;;;1.20;100.00
56992;BME280;42885;49.754;18.636;2023-03-04T06:29:08;98225.67;;;1.23;100.00
56992;BME280;42885;49.754;18.636;2023-03-04T06:31:57;98225.67;;;1.23;100.00
56992;BME280;42885;49.754;18.636;2023-03-04T06:34:46;98236.47;;;1.57;100.00
56992;BME280;42885;49.754;18.636;2023-03-04T06:37:36;98237.90;;;1.51;100.00
56992;BME280;42885;49.754;18.636;2023-03-04T06:40:26;98242.88;;;1.41;100.00
56992;BME280;42885;49.754;18.636;2023-03-04T06:43:16;98229.73;;;1.51;100.00
56992;BME280;42885;49.754;18.636;2023-03-04T06:46:07;98242.02;;;1.40;100.00
56992;BME280;42885;49.754;18.636;2023-03-04T06:48:57;98237.43;;;1.35;100.00
56992;BME280;42885;49.754;18.636;2023-03-04T06:51:46;98240.16;;;1.47;100.00
56992;BME280;42885;49.754;18.636;2023-03-04T06:54:36;98250.53;;;1.44;100.00
56992;BME280;42885;49.754;18.636;2023-03-04T06:57:26;98243.83;;;1.73;100.00
56992;BME280;42885;49.754;18.636;2023-03-04T07:00:16;98243.80;;;1.56;100.00
56992;BME280;42885;49.754;18.636;2023-03-04T07:03:06;98239.45;;;1.76;100.00
56992;BME280;42885;49.754;18.636;2023-03-04T07:05:55;98233.91;;;1.74;100.00
56992;BME280;42885;49.754;18.636;2023-03-04T07:08:45;98226.22;;;2.05;100.00
56992;BME280;42885;49.754;18.636;2023-03-04T07:11:35;98238.44;;;1.82;100.00
56992;BME280;42885;49.754;18.636;2023-03-04T07:14:24;98229.44;;;1.81;100.00
56992;BME280;42885;49.754;18.636;2023-03-04T07:17:15;98217.42;;;1.79;100.00
56992;BME280;42885;49.754;18.636;2023-03-04T07:20:05;98213.49;;;1.83;100.00
56992;BME280;42885;49.754;18.636;2023-03-04T07:22:54;98208.67;;;1.85;100.00
56992;BME280;42885;49.754;18.636;2023-03-04T07:25:43;98214.59;;;2.05;100.00
56992;BME280;42885;49.754;18.636;2023-03-04T07:28:33;98207.38;;;2.02;100.00
56992;BME280;42885;49.754;18.636;2023-03-04T07:31:28;98214.28;;;2.18;100.00
56992;BME280;42885;49.754;18.636;2023-03-04T07:34:18;98208.51;;;2.08;100.00
56992;BME280;42885;49.754;18.636;2023-03-04T07:37:08;98207.44;;;2.00;100.00
56992;BME280;42885;49.754;18.636;2023-03-04T07:39:57;98219.52;;;1.98;100.00
56992;BME280;42885;49.754;18.636;2023-03-04T07:42:54;98214.76;;;2.32;100.00
56992;BME280;42885;49.754;18.636;2023-03-04T07:45:43;98213.44;;;2.01;100.00
56992;BME280;42885;49.754;18.636;2023-03-04T07:48:32;98212.26;;;2.13;100.00
56992;BME280;42885;49.754;18.636;2023-03-04T07:51:23;98211.73;;;2.16;100.00
56992;BME280;42885;49.754;18.636;2023-03-04T07:54:13;98210.98;;;2.28;100.00
56992;BME280;42885;49.754;18.636;2023-03-04T07:57:02;98207.38;;;2.50;100.00
56992;BME280;42885;49.754;18.636;2023-03-04T07:59:51;98207.23;;;2.55;100.00
56992;BME280;42885;49.754;18.636;2023-03-04T08:02:41;98210.13;;;3.02;100.00
56992;BME280;42885;49.754;18.636;2023-03-04T08:05:31;98212.92;;;2.96;100.00
56992;BME280;42885;49.754;18.636;2023-03-04T08:08:21;98208.43;;;2.88;100.00
56992;BME280;42885;49.754;18.636;2023-03-04T08:11:13;98214.98;;;2.70;100.00
56992;BME280;42885;49.754;18.636;2023-03-04T08:14:04;98210.92;;;2.61;100.00
56992;BME280;42885;49.754;18.636;2023-03-04T08:16:52;98221.58;;;3.09;100.00
56992;BME280;42885;49.754;18.636;2023-03-04T08:19:42;98212.72;;;3.58;100.00
56992;BME280;42885;49.754;18.636;2023-03-04T08:22:32;98216.87;;;3.22;100.00
56992;BME280;42885;49.754;18.636;2023-03-04T08:25:21;98219.78;;;3.53;100.00
56992;BME280;42885;49.754;18.636;2023-03-04T08:28:12;98223.36;;;2.78;100.00
56992;BME280;42885;49.754;18.636;2023-03-04T08:31:01;98224.98;;;2.96;100.00
56992;BME280;42885;49.754;18.636;2023-03-04T08:33:49;98225.70;;;3.56;100.00
56992;BME280;42885;49.754;18.636;2023-03-04T08:36:42;98229.91;;;2.90;100.00
56992;BME280;42885;49.754;18.636;2023-03-04T08:39:31;98242.30;;;3.22;100.00
56992;BME280;42885;49.754;18.636;2023-03-04T08:42:23;98238.95;;;3.47;100.00
56992;BME280;42885;49.754;18.636;2023-03-04T08:45:12;98242.80;;;3.34;100.00
56992;BME280;42885;49.754;18.636;2023-03-04T08:48:02;98245.80;;;3.48;100.00
56992;BME280;42885;49.754;18.636;2023-03-04T08:50:52;98252.42;;;3.43;100.00
56992;BME280;42885;49.754;18.636;2023-03-04T08:53:42;98254.13;;;3.16;100.00
56992;BME280;42885;49.754;18.636;2023-03-04T08:56:31;98252.39;;;3.01;100.00
56992;BME280;42885;49.754;18.636;2023-03-04T08:59:20;98252.08;;;3.12;100.00
56992;BME280;42885;49.754;18.636;2023-03-04T09:02:10;98254.63;;;3.27;100.00
56992;BME280;42885;49.754;18.636;2023-03-04T09:05:00;98259.47;;;3.10;100.00
56992;BME280;42885;49.754;18.636;2023-03-04T09:07:49;98255.23;;;3.22;100.00
56992;BME280;42885;49.754;18.636;2023-03-04T09:10:38;98265.25;;;3.05;100.00
56992;BME280;42885;49.754;18.636;2023-03-04T09:13:29;98261.64;;;2.95;100.00
56992;BME280;42885;49.754;18.636;2023-03-04T09:16:18;98267.78;;;2.91;100.00
56992;BME280;42885;49.754;18.636;2023-03-04T09:19:07;98275.45;;;3.38;100.00
56992;BME280;42885;49.754;18.636;2023-03-04T09:21:57;98283.22;;;3.38;100.00
56992;BME280;42885;49.754;18.636;2023-03-04T09:24:46;98288.31;;;3.54;100.00
56992;BME280;42885;49.754;18.636;2023-03-04T09:27:36;98290.57;;;3.65;100.00
56992;BME280;42885;49.754;18.636;2023-03-04T09:30:25;98300.43;;;3.52;100.00
56992;BME280;42885;49.754;18.636;2023-03-04T09:33:15;98301.39;;;3.21;100.00
56992;BME280;42885;49.754;18.636;2023-03-04T09:36:04;98301.66;;;3.27;100.00
56992;BME280;42885;49.754;18.636;2023-03-04T09:38:53;98310.02;;;3.35;100.00
56992;BME280;42885;49.754;18.636;2023-03-04T09:41:46;98312.39;;;3.56;100.00
56992;BME280;42885;49.754;18.636;2023-03-04T09:44:38;98311.22;;;3.38;100.00
56992;BME280;42885;49.754;18.636;2023-03-04T09:47:29;98308.16;;;3.25;100.00
56992;BME280;42885;49.754;18.636;2023-03-04T09:50:20;98301.93;;;3.18;100.00
56992;BME280;42885;49.754;18.636;2023-03-04T09:56:05;98299.36;;;4.13;97.32
56992;BME280;42885;49.754;18.636;2023-03-04T09:59:02;98298.31;;;3.79;96.33
56992;BME280;42885;49.754;18.636;2023-03-04T10:02:02;98292.02;;;4.26;95.68
56992;BME280;42885;49.754;18.636;2023-03-04T10:04:50;98292.05;;;3.99;94.18
56992;BME280;42885;49.754;18.636;2023-03-04T10:07:36;98288.25;;;3.96;94.90
56992;BME280;42885;49.754;18.636;2023-03-04T10:13:21;98284.22;;;4.40;93.65
56992;BME280;42885;49.754;18.636;2023-03-04T10:16:10;98273.41;;;4.52;91.28
56992;BME280;42885;49.754;18.636;2023-03-04T10:19:20;98268.30;;;4.25;94.50
56992;BME280;42885;49.754;18.636;2023-03-04T10:22:22;98263.83;;;4.78;91.73
56992;BME280;42885;49.754;18.636;2023-03-04T10:25:27;98257.67;;;5.05;89.96
56992;BME280;42885;49.754;18.636;2023-03-04T10:28:18;98251.29;;;5.02;89.14
56992;BME280;42885;49.754;18.636;2023-03-04T10:34:16;98247.58;;;5.54;84.86
56992;BME280;42885;49.754;18.636;2023-03-04T10:37:06;98244.52;;;5.54;82.43
56992;BME280;42885;49.754;18.636;2023-03-04T10:39:58;98242.98;;;6.14;80.01
56992;BME280;42885;49.754;18.636;2023-03-04T10:42:50;98242.27;;;5.12;81.31
56992;BME280;42885;49.754;18.636;2023-03-04T10:45:40;98238.59;;;4.84;83.41
56992;BME280;42885;49.754;18.636;2023-03-04T10:48:30;98252.83;;;5.07;81.65
56992;BME280;42885;49.754;18.636;2023-03-04T10:51:26;98231.95;;;5.10;81.62
56992;BME280;42885;49.754;18.636;2023-03-04T10:54:26;98229.34;;;5.10;80.78
56992;BME280;42885;49.754;18.636;2023-03-04T10:57:36;98228.60;;;4.85;80.45
56992;BME280;42885;49.754;18.636;2023-03-04T11:00:28;98219.13;;;4.95;77.99
56992;BME280;42885;49.754;18.636;2023-03-04T11:03:30;98219.88;;;5.32;78.28
56992;BME280;42885;49.754;18.636;2023-03-04T11:06:21;98204.98;;;5.37;76.88
56992;BME280;42885;49.754;18.636;2023-03-04T11:09:25;98198.40;;;5.71;75.20
56992;BME280;42885;49.754;18.636;2023-03-04T11:12:16;98190.38;;;5.45;75.74
56992;BME280;42885;49.754;18.636;2023-03-04T11:15:17;98197.86;;;5.20;75.99
56992;BME280;42885;49.754;18.636;2023-03-04T11:18:09;98191.67;;;5.45;76.16
56992;BME280;42885;49.754;18.636;2023-03-04T11:20:59;98195.42;;;5.05;75.42
56992;BME280;42885;49.754;18.636;2023-03-04T11:24:11;98188.73;;;5.32;76.36
56992;BME280;42885;49.754;18.636;2023-03-04T11:30:12;98186.00;;;5.35;75.60
56992;BME280;42885;49.754;18.636;2023-03-04T11:32:55;98179.51;;;5.57;72.88
56992;BME280;42885;49.754;18.636;2023-03-04T11:36:33;98177.82;;;5.56;75.59
56992;BME280;42885;49.754;18.636;2023-03-04T11:38:45;98179.42;;;5.48;74.09
56992;BME280;42885;49.754;18.636;2023-03-04T11:41:41;98168.27;;;5.57;74.05
56992;BME280;42885;49.754;18.636;2023-03-04T11:44:30;98160.47;;;5.98;73.47
56992;BME280;42885;49.754;18.636;2023-03-04T11:47:36;98159.89;;;6.23;70.60
56992;BME280;42885;49.754;18.636;2023-03-04T11:50:40;98161.53;;;6.04;71.71
56992;BME280;42885;49.754;18.636;2023-03-04T11:56:37;98154.09;;;5.33;72.79
56992;BME280;42885;49.754;18.636;2023-03-04T12:18:53;98127.81;;;6.32;68.75
56992;BME280;42885;49.754;18.636;2023-03-04T12:31:24;98110.47;;;9.54;50.85
56992;BME280;42885;49.754;18.636;2023-03-04T12:37:28;98093.14;;;9.82;49.27
56992;BME280;42885;49.754;18.636;2023-03-04T12:40:24;98095.62;;;10.71;46.60
56992;BME280;42885;49.754;18.636;2023-03-04T12:52:55;98098.29;;;6.44;57.98
56992;BME280;42885;49.754;18.636;2023-03-04T12:55:44;98097.23;;;6.85;58.68
56992;BME280;42885;49.754;18.636;2023-03-04T12:58:36;98088.73;;;6.81;57.29
56992;BME280;42885;49.754;18.636;2023-03-04T13:01:28;98094.60;;;6.67;58.85
56992;BME280;42885;49.754;18.636;2023-03-04T13:04:49;98085.63;;;7.10;56.58
56992;BME280;42885;49.754;18.636;2023-03-04T13:07:42;98084.99;;;6.78;58.50
56992;BME280;42885;49.754;18.636;2023-03-04T13:10:31;98082.95;;;7.38;56.62
56992;BME280;42885;49.754;18.636;2023-03-04T13:13:40;98101.50;;;6.49;59.83
56992;BME280;42885;49.754;18.636;2023-03-04T13:16:33;98097.53;;;6.51;61.98
56992;BME280;42885;49.754;18.636;2023-03-04T13:19:49;98090.05;;;6.53;60.75
56992;BME280;42885;49.754;18.636;2023-03-04T13:22:52;98084.77;;;5.87;63.79
56992;BME280;42885;49.754;18.636;2023-03-04T13:25:48;98087.45;;;5.75;65.96
56992;BME280;42885;49.754;18.636;2023-03-04T13:28:38;98086.36;;;5.70;66.19
56992;BME280;42885;49.754;18.636;2023-03-04T13:31:27;98076.23;;;5.43;67.24
56992;BME280;42885;49.754;18.636;2023-03-04T13:37:30;98070.97;;;5.03;68.49
56992;BME280;42885;49.754;18.636;2023-03-04T13:40:29;98074.42;;;5.04;68.77
56992;BME280;42885;49.754;18.636;2023-03-04T13:43:26;98066.55;;;5.05;68.94
56992;BME280;42885;49.754;18.636;2023-03-04T13:49:21;98063.61;;;4.82;71.56
56992;BME280;42885;49.754;18.636;2023-03-04T13:52:36;98061.45;;;5.04;71.60
56992;BME280;42885;49.754;18.636;2023-03-04T13:55:37;98060.34;;;5.09;71.32
56992;BME280;42885;49.754;18.636;2023-03-04T13:58:27;98058.66;;;4.76;74.75
56992;BME280;42885;49.754;18.636;2023-03-04T14:01:24;98055.16;;;4.77;75.36
56992;BME280;42885;49.754;18.636;2023-03-04T14:04:19;98044.79;;;4.77;77.84
56992;BME280;42885;49.754;18.636;2023-03-04T14:07:36;98037.49;;;4.97;76.89
56992;BME280;42885;49.754;18.636;2023-03-04T14:10:22;98041.28;;;5.00;76.84
56992;BME280;42885;49.754;18.636;2023-03-04T14:13:10;98040.02;;;4.78;76.83
56992;BME280;42885;49.754;18.636;2023-03-04T14:15:59;98045.22;;;5.09;75.41
56992;BME280;42885;49.754;18.636;2023-03-04T14:19:05;98051.95;;;4.92;75.69
56992;BME280;42885;49.754;18.636;2023-03-04T14:21:49;98041.85;;;4.86;76.54
56992;BME280;42885;49.754;18.636;2023-03-04T14:24:40;98027.45;;;4.89;77.31
56992;BME280;42885;49.754;18.636;2023-03-04T14:27:31;98030.05;;;4.89;77.16
56992;BME280;42885;49.754;18.636;2023-03-04T14:30:25;98044.16;;;4.72;78.71
56992;BME280;42885;49.754;18.636;2023-03-04T14:33:22;98032.36;;;4.85;77.13
56992;BME280;42885;49.754;18.636;2023-03-04T14:36:12;98038.58;;;4.71;78.02
56992;BME280;42885;49.754;18.636;2023-03-04T14:39:01;98032.45;;;4.94;77.69
56992;BME280;42885;49.754;18.636;2023-03-04T14:41:52;98034.31;;;4.80;78.20
56992;BME280;42885;49.754;18.636;2023-03-04T14:44:46;98040.03;;;4.99;77.73
56992;BME280;42885;49.754;18.636;2023-03-04T14:47:39;98034.69;;;4.71;78.45
56992;BME280;42885;49.754;18.636;2023-03-04T14:50:29;98031.77;;;4.68;79.34
56992;BME280;42885;49.754;18.636;2023-03-04T14:53:21;98036.48;;;4.68;80.46
56992;BME280;42885;49.754;18.636;2023-03-04T14:56:10;98037.44;;;4.88;78.73
56992;BME280;42885;49.754;18.636;2023-03-04T14:59:00;98036.63;;;4.76;79.81
56992;BME280;42885;49.754;18.636;2023-03-04T15:01:50;98036.09;;;4.67;80.87
56992;BME280;42885;49.754;18.636;2023-03-04T15:04:40;98034.18;;;4.83;79.78
56992;BME280;42885;49.754;18.636;2023-03-04T15:07:32;98035.98;;;4.71;80.12
56992;BME280;42885;49.754;18.636;2023-03-04T15:10:33;98026.02;;;4.82;79.31
56992;BME280;42885;49.754;18.636;2023-03-04T15:13:18;98026.92;;;4.91;79.75
56992;BME280;42885;49.754;18.636;2023-03-04T15:16:11;98029.47;;;5.03;78.93
56992;BME280;42885;49.754;18.636;2023-03-04T15:19:04;98023.17;;;4.88;80.03
56992;BME280;42885;49.754;18.636;2023-03-04T15:22:04;98019.91;;;4.83;80.28
56992;BME280;42885;49.754;18.636;2023-03-04T15:24:55;98033.66;;;4.85;80.31
56992;BME280;42885;49.754;18.636;2023-03-04T15:27:45;98017.08;;;4.89;80.56
56992;BME280;42885;49.754;18.636;2023-03-04T15:30:35;98010.73;;;4.86;80.74
56992;BME280;42885;49.754;18.636;2023-03-04T15:33:24;98020.05;;;4.80;81.28
56992;BME280;42885;49.754;18.636;2023-03-04T15:36:16;98024.52;;;4.76;81.82
56992;BME280;42885;49.754;18.636;2023-03-04T15:39:08;98015.92;;;4.86;81.57
56992;BME280;42885;49.754;18.636;2023-03-04T15:41:58;98021.98;;;4.75;81.95
56992;BME280;42885;49.754;18.636;2023-03-04T15:44:49;98015.01;;;4.98;81.15
56992;BME280;42885;49.754;18.636;2023-03-04T15:47:38;98016.41;;;4.74;81.62
56992;BME280;42885;49.754;18.636;2023-03-04T15:50:28;98017.45;;;4.70;82.12
56992;BME280;42885;49.754;18.636;2023-03-04T15:53:27;98010.31;;;4.85;82.13
56992;BME280;42885;49.754;18.636;2023-03-04T15:56:19;98002.92;;;4.76;81.99
56992;BME280;42885;49.754;18.636;2023-03-04T15:59:11;98005.66;;;4.73;81.98
56992;BME280;42885;49.754;18.636;2023-03-04T16:02:09;97990.53;;;4.72;82.65
56992;BME280;42885;49.754;18.636;2023-03-04T16:04:56;97996.05;;;4.64;83.00